sensor_id;sensor_type;location;lat;lon;timestamp;P1;durP1;ratioP1;P2;durP2;ratioP2
74503;SDS011;62988;55.776;37.544;2023-04-24T00:00:34;10.52;;;4.28;;
74503;SDS011;62988;55.776;37.544;2023-04-24T00:02:59;13.10;;;4.53;;
74503;SDS011;62988;55.776;37.544;2023-04-24T00:05:24;22.70;;;5.38;;
74503;SDS011;62988;55.776;37.544;2023-04-24T00:07:50;15.38;;;4.90;;
74503;SDS011;62988;55.776;37.544;2023-04-24T00:10:19;17.05;;;4.70;;
74503;SDS011;62988;55.776;37.544;2023-04-24T00:12:44;17.42;;;5.38;;
74503;SDS011;62988;55.776;37.544;2023-04-24T00:15:10;14.45;;;6.05;;
74503;SDS011;62988;55.776;37.544;2023-04-24T00:17:35;14.43;;;4.90;;
74503;SDS011;62988;55.776;37.544;2023-04-24T00:20:01;19.17;;;4.93;;
74503;SDS011;62988;55.776;37.544;2023-04-24T00:22:29;15.95;;;6.07;;
74503;SDS011;62988;55.776;37.544;2023-04-24T00:24:55;19.60;;;5.38;;
74503;SDS011;62988;55.776;37.544;2023-04-24T00:27:20;15.40;;;5.15;;
74503;SDS011;62988;55.776;37.544;2023-04-24T00:29:46;14.60;;;5.73;;
74503;SDS011;62988;55.776;37.544;2023-04-24T00:32:12;15.02;;;5.47;;
74503;SDS011;62988;55.776;37.544;2023-04-24T00:34:37;18.63;;;6.57;;
74503;SDS011;62988;55.776;37.544;2023-04-24T00:37:02;19.67;;;6.45;;
74503;SDS011;62988;55.776;37.544;2023-04-24T00:39:28;20.63;;;5.47;;
74503;SDS011;62988;55.776;37.544;2023-04-24T00:41:53;27.77;;;6.47;;
74503;SDS011;62988;55.776;37.544;2023-04-24T00:44:18;13.63;;;6.50;;
74503;SDS011;62988;55.776;37.544;2023-04-24T00:46:44;14.77;;;5.80;;
74503;SDS011;62988;55.776;37.544;2023-04-24T00:49:10;16.48;;;7.25;;
74503;SDS011;62988;55.776;37.544;2023-04-24T00:51:36;16.63;;;7.25;;
74503;SDS011;62988;55.776;37.544;2023-04-24T00:54:02;14.65;;;6.53;;
74503;SDS011;62988;55.776;37.544;2023-04-24T00:56:27;20.05;;;7.18;;
74503;SDS011;62988;55.776;37.544;2023-04-24T00:58:53;15.80;;;6.50;;
74503;SDS011;62988;55.776;37.544;2023-04-24T01:01:21;18.27;;;6.40;;
74503;SDS011;62988;55.776;37.544;2023-04-24T01:03:48;14.63;;;7.03;;
74503;SDS011;62988;55.776;37.544;2023-04-24T01:06:14;17.45;;;7.40;;
74503;SDS011;62988;55.776;37.544;2023-04-24T01:08:39;21.50;;;8.18;;
74503;SDS011;62988;55.776;37.544;2023-04-24T01:11:05;14.23;;;6.93;;
74503;SDS011;62988;55.776;37.544;2023-04-24T01:13:31;19.10;;;7.90;;
74503;SDS011;62988;55.776;37.544;2023-04-24T01:15:56;17.67;;;7.47;;
74503;SDS011;62988;55.776;37.544;2023-04-24T01:18:22;14.60;;;7.57;;
74503;SDS011;62988;55.776;37.544;2023-04-24T01:20:47;20.65;;;8.10;;
74503;SDS011;62988;55.776;37.544;2023-04-24T01:23:14;24.13;;;9.38;;
74503;SDS011;62988;55.776;37.544;2023-04-24T01:25:40;26.42;;;7.85;;
74503;SDS011;62988;55.776;37.544;2023-04-24T01:28:06;19.30;;;9.05;;
74503;SDS011;62988;55.776;37.544;2023-04-24T01:30:31;21.77;;;8.55;;
74503;SDS011;62988;55.776;37.544;2023-04-24T01:32:57;17.88;;;8.20;;
74503;SDS011;62988;55.776;37.544;2023-04-24T01:35:23;21.77;;;8.90;;
74503;SDS011;62988;55.776;37.544;2023-04-24T01:37:50;24.83;;;8.32;;
74503;SDS011;62988;55.776;37.544;2023-04-24T01:40:15;23.85;;;9.10;;
74503;SDS011;62988;55.776;37.544;2023-04-24T01:42:41;20.77;;;7.80;;
74503;SDS011;62988;55.776;37.544;2023-04-24T01:45:06;23.52;;;8.73;;
74503;SDS011;62988;55.776;37.544;2023-04-24T01:47:33;23.80;;;8.68;;
74503;SDS011;62988;55.776;37.544;2023-04-24T01:49:58;27.20;;;8.90;;
74503;SDS011;62988;55.776;37.544;2023-04-24T01:52:24;23.90;;;8.73;;
74503;SDS011;62988;55.776;37.544;2023-04-24T01:54:49;24.15;;;10.13;;
74503;SDS011;62988;55.776;37.544;2023-04-24T01:57:15;25.60;;;9.23;;
74503;SDS011;62988;55.776;37.544;2023-04-24T01:59:41;18.65;;;8.98;;
74503;SDS011;62988;55.776;37.544;2023-04-24T02:02:06;20.92;;;8.35;;
74503;SDS011;62988;55.776;37.544;2023-04-24T02:04:31;15.88;;;8.38;;
74503;SDS011;62988;55.776;37.544;2023-04-24T02:06:57;22.50;;;8.43;;
74503;SDS011;62988;55.776;37.544;2023-04-24T02:09:22;26.92;;;8.48;;
74503;SDS011;62988;55.776;37.544;2023-04-24T02:11:48;23.92;;;9.25;;
74503;SDS011;62988;55.776;37.544;2023-04-24T02:14:13;22.42;;;8.75;;
74503;SDS011;62988;55.776;37.544;2023-04-24T02:16:38;23.17;;;8.67;;
74503;SDS011;62988;55.776;37.544;2023-04-24T02:19:04;19.38;;;8.10;;
74503;SDS011;62988;55.776;37.544;2023-04-24T02:21:29;21.85;;;8.15;;
74503;SDS011;62988;55.776;37.544;2023-04-24T02:23:56;24.85;;;9.88;;
74503;SDS011;62988;55.776;37.544;2023-04-24T02:26:21;21.13;;;8.27;;
74503;SDS011;62988;55.776;37.544;2023-04-24T02:28:47;20.15;;;8.45;;
74503;SDS011;62988;55.776;37.544;2023-04-24T02:31:12;25.80;;;8.85;;
74503;SDS011;62988;55.776;37.544;2023-04-24T02:33:37;27.60;;;8.63;;
74503;SDS011;62988;55.776;37.544;2023-04-24T02:36:03;23.87;;;8.73;;
74503;SDS011;62988;55.776;37.544;2023-04-24T02:38:28;21.52;;;8.25;;
74503;SDS011;62988;55.776;37.544;2023-04-24T02:40:54;21.88;;;8.05;;
74503;SDS011;62988;55.776;37.544;2023-04-24T02:43:19;20.55;;;8.63;;
74503;SDS011;62988;55.776;37.544;2023-04-24T02:45:45;19.83;;;8.10;;
74503;SDS011;62988;55.776;37.544;2023-04-24T02:48:10;18.45;;;8.05;;
74503;SDS011;62988;55.776;37.544;2023-04-24T02:50:35;18.33;;;8.30;;
74503;SDS011;62988;55.776;37.544;2023-04-24T02:53:01;29.25;;;8.55;;
74503;SDS011;62988;55.776;37.544;2023-04-24T02:55:26;22.70;;;8.63;;
74503;SDS011;62988;55.776;37.544;2023-04-24T02:57:52;21.00;;;7.80;;
74503;SDS011;62988;55.776;37.544;2023-04-24T03:00:17;20.07;;;8.90;;
74503;SDS011;62988;55.776;37.544;2023-04-24T03:02:42;20.23;;;8.30;;
74503;SDS011;62988;55.776;37.544;2023-04-24T03:05:08;19.10;;;8.93;;
74503;SDS011;62988;55.776;37.544;2023-04-24T03:07:34;17.95;;;8.07;;
74503;SDS011;62988;55.776;37.544;2023-04-24T03:09:59;21.60;;;8.48;;
74503;SDS011;62988;55.776;37.544;2023-04-24T03:12:25;18.30;;;7.85;;
74503;SDS011;62988;55.776;37.544;2023-04-24T03:14:50;18.83;;;8.45;;
74503;SDS011;62988;55.776;37.544;2023-04-24T03:17:15;15.70;;;8.32;;
74503;SDS011;62988;55.776;37.544;2023-04-24T03:19:41;21.57;;;8.20;;
74503;SDS011;62988;55.776;37.544;2023-04-24T03:22:06;18.20;;;8.52;;
74503;SDS011;62988;55.776;37.544;2023-04-24T03:24:34;17.88;;;8.68;;
74503;SDS011;62988;55.776;37.544;2023-04-24T03:26:59;20.98;;;6.97;;
74503;SDS011;62988;55.776;37.544;2023-04-24T03:29:25;18.95;;;7.50;;
74503;SDS011;62988;55.776;37.544;2023-04-24T03:31:50;12.20;;;6.13;;
74503;SDS011;62988;55.776;37.544;2023-04-24T03:34:16;18.80;;;8.40;;
74503;SDS011;62988;55.776;37.544;2023-04-24T03:36:41;17.77;;;7.63;;
74503;SDS011;62988;55.776;37.544;2023-04-24T03:39:06;16.30;;;7.53;;
74503;SDS011;62988;55.776;37.544;2023-04-24T03:41:32;19.17;;;8.27;;
74503;SDS011;62988;55.776;37.544;2023-04-24T03:43:57;13.50;;;7.23;;
74503;SDS011;62988;55.776;37.544;2023-04-24T03:46:23;17.73;;;7.03;;
74503;SDS011;62988;55.776;37.544;2023-04-24T03:48:49;15.70;;;7.30;;
74503;SDS011;62988;55.776;37.544;2023-04-24T03:51:14;18.45;;;7.68;;
74503;SDS011;62988;55.776;37.544;2023-04-24T03:53:39;15.13;;;6.67;;
74503;SDS011;62988;55.776;37.544;2023-04-24T03:56:05;16.73;;;7.87;;
74503;SDS011;62988;55.776;37.544;2023-04-24T03:58:30;15.82;;;6.85;;
74503;SDS011;62988;55.776;37.544;2023-04-24T04:00:56;15.88;;;7.90;;
74503;SDS011;62988;55.776;37.544;2023-04-24T04:03:23;19.30;;;7.28;;
74503;SDS011;62988;55.776;37.544;2023-04-24T04:05:48;18.73;;;7.20;;
74503;SDS011;62988;55.776;37.544;2023-04-24T04:08:14;17.63;;;7.70;;
74503;SDS011;62988;55.776;37.544;2023-04-24T04:10:39;19.13;;;6.90;;
74503;SDS011;62988;55.776;37.544;2023-04-24T04:13:05;22.25;;;7.35;;
74503;SDS011;62988;55.776;37.544;2023-04-24T04:15:31;24.42;;;7.10;;
74503;SDS011;62988;55.776;37.544;2023-04-24T04:17:57;21.73;;;6.82;;
74503;SDS011;62988;55.776;37.544;2023-04-24T04:20:22;17.02;;;6.45;;
74503;SDS011;62988;55.776;37.544;2023-04-24T04:22:47;16.55;;;6.68;;
74503;SDS011;62988;55.776;37.544;2023-04-24T04:25:13;16.47;;;6.37;;
74503;SDS011;62988;55.776;37.544;2023-04-24T04:27:38;13.43;;;6.97;;
74503;SDS011;62988;55.776;37.544;2023-04-24T04:30:04;15.27;;;6.75;;
74503;SDS011;62988;55.776;37.544;2023-04-24T04:32:32;14.98;;;7.32;;
74503;SDS011;62988;55.776;37.544;2023-04-24T04:34:58;22.33;;;7.70;;
74503;SDS011;62988;55.776;37.544;2023-04-24T04:37:28;17.83;;;7.35;;
74503;SDS011;62988;55.776;37.544;2023-04-24T04:39:54;17.60;;;7.10;;
74503;SDS011;62988;55.776;37.544;2023-04-24T04:42:19;14.32;;;7.30;;
74503;SDS011;62988;55.776;37.544;2023-04-24T04:44:45;21.27;;;7.68;;
74503;SDS011;62988;55.776;37.544;2023-04-24T04:47:10;15.43;;;6.95;;
74503;SDS011;62988;55.776;37.544;2023-04-24T04:49:36;16.63;;;7.22;;
74503;SDS011;62988;55.776;37.544;2023-04-24T04:52:03;16.23;;;7.07;;
74503;SDS011;62988;55.776;37.544;2023-04-24T04:54:28;25.30;;;7.33;;
74503;SDS011;62988;55.776;37.544;2023-04-24T04:56:54;23.17;;;7.50;;
74503;SDS011;62988;55.776;37.544;2023-04-24T04:59:19;20.33;;;7.85;;
74503;SDS011;62988;55.776;37.544;2023-04-24T05:01:45;16.92;;;7.95;;
74503;SDS011;62988;55.776;37.544;2023-04-24T05:04:10;16.20;;;7.70;;
74503;SDS011;62988;55.776;37.544;2023-04-24T05:06:36;19.95;;;7.18;;
74503;SDS011;62988;55.776;37.544;2023-04-24T05:09:01;26.02;;;7.95;;
74503;SDS011;62988;55.776;37.544;2023-04-24T05:11:26;17.35;;;8.32;;
74503;SDS011;62988;55.776;37.544;2023-04-24T05:13:52;23.03;;;7.67;;
74503;SDS011;62988;55.776;37.544;2023-04-24T05:16:17;17.43;;;7.27;;
74503;SDS011;62988;55.776;37.544;2023-04-24T05:18:45;16.63;;;7.20;;
74503;SDS011;62988;55.776;37.544;2023-04-24T05:21:11;15.40;;;7.45;;
74503;SDS011;62988;55.776;37.544;2023-04-24T05:23:36;21.15;;;7.70;;
74503;SDS011;62988;55.776;37.544;2023-04-24T05:26:01;24.03;;;6.93;;
74503;SDS011;62988;55.776;37.544;2023-04-24T05:28:27;18.33;;;7.10;;
74503;SDS011;62988;55.776;37.544;2023-04-24T05:30:53;17.60;;;6.72;;
74503;SDS011;62988;55.776;37.544;2023-04-24T06:09:42;19.70;;;6.35;;
74503;SDS011;62988;55.776;37.544;2023-04-24T06:12:07;19.15;;;5.88;;
74503;SDS011;62988;55.776;37.544;2023-04-24T06:14:33;16.90;;;6.20;;
74503;SDS011;62988;55.776;37.544;2023-04-24T06:16:59;15.27;;;6.53;;
74503;SDS011;62988;55.776;37.544;2023-04-24T06:19:24;20.48;;;6.65;;
74503;SDS011;62988;55.776;37.544;2023-04-24T06:21:49;27.90;;;6.47;;
74503;SDS011;62988;55.776;37.544;2023-04-24T06:24:15;16.77;;;6.30;;
74503;SDS011;62988;55.776;37.544;2023-04-24T06:26:41;16.17;;;5.57;;
74503;SDS011;62988;55.776;37.544;2023-04-24T06:29:07;20.03;;;6.73;;
74503;SDS011;62988;55.776;37.544;2023-04-24T06:31:32;20.60;;;5.72;;
74503;SDS011;62988;55.776;37.544;2023-04-24T06:34:02;14.95;;;5.65;;
74503;SDS011;62988;55.776;37.544;2023-04-24T06:36:27;15.80;;;6.07;;
74503;SDS011;62988;55.776;37.544;2023-04-24T06:38:53;12.40;;;5.15;;
74503;SDS011;62988;55.776;37.544;2023-04-24T06:41:18;14.13;;;4.80;;
74503;SDS011;62988;55.776;37.544;2023-04-24T06:43:44;14.03;;;5.37;;
74503;SDS011;62988;55.776;37.544;2023-04-24T06:46:10;14.02;;;5.47;;
74503;SDS011;62988;55.776;37.544;2023-04-24T06:48:35;23.42;;;5.90;;
74503;SDS011;62988;55.776;37.544;2023-04-24T06:51:00;13.95;;;5.50;;
74503;SDS011;62988;55.776;37.544;2023-04-24T06:53:26;14.63;;;5.00;;
74503;SDS011;62988;55.776;37.544;2023-04-24T06:55:52;20.77;;;6.20;;
74503;SDS011;62988;55.776;37.544;2023-04-24T06:58:17;16.73;;;5.07;;
74503;SDS011;62988;55.776;37.544;2023-04-24T07:00:43;11.70;;;4.57;;
74503;SDS011;62988;55.776;37.544;2023-04-24T07:03:08;11.83;;;4.73;;
74503;SDS011;62988;55.776;37.544;2023-04-24T07:05:33;19.85;;;5.40;;
74503;SDS011;62988;55.776;37.544;2023-04-24T07:08:00;15.02;;;5.00;;
74503;SDS011;62988;55.776;37.544;2023-04-24T07:10:25;14.95;;;5.72;;
74503;SDS011;62988;55.776;37.544;2023-04-24T07:12:53;20.65;;;5.63;;
74503;SDS011;62988;55.776;37.544;2023-04-24T07:15:19;20.20;;;5.47;;
74503;SDS011;62988;55.776;37.544;2023-04-24T07:17:44;18.55;;;4.35;;
74503;SDS011;62988;55.776;37.544;2023-04-24T07:20:10;17.35;;;5.18;;
74503;SDS011;62988;55.776;37.544;2023-04-24T07:22:37;14.68;;;5.00;;
74503;SDS011;62988;55.776;37.544;2023-04-24T07:25:02;11.18;;;4.07;;
74503;SDS011;62988;55.776;37.544;2023-04-24T07:27:28;14.55;;;4.65;;
74503;SDS011;62988;55.776;37.544;2023-04-24T07:29:53;13.73;;;4.97;;
74503;SDS011;62988;55.776;37.544;2023-04-24T07:32:18;26.27;;;4.83;;
74503;SDS011;62988;55.776;37.544;2023-04-24T07:34:44;17.50;;;4.10;;
74503;SDS011;62988;55.776;37.544;2023-04-24T07:37:09;11.73;;;3.83;;
74503;SDS011;62988;55.776;37.544;2023-04-24T07:39:34;9.50;;;3.85;;
74503;SDS011;62988;55.776;37.544;2023-04-24T07:42:00;11.98;;;4.10;;
74503;SDS011;62988;55.776;37.544;2023-04-24T07:44:26;10.60;;;3.50;;
74503;SDS011;62988;55.776;37.544;2023-04-24T07:46:51;10.40;;;3.95;;
74503;SDS011;62988;55.776;37.544;2023-04-24T07:49:17;9.35;;;4.00;;
74503;SDS011;62988;55.776;37.544;2023-04-24T07:51:42;11.80;;;4.10;;
74503;SDS011;62988;55.776;37.544;2023-04-24T07:54:08;9.50;;;3.72;;
74503;SDS011;62988;55.776;37.544;2023-04-24T07:56:33;10.43;;;4.00;;
74503;SDS011;62988;55.776;37.544;2023-04-24T07:58:59;15.07;;;4.18;;
74503;SDS011;62988;55.776;37.544;2023-04-24T08:01:26;17.77;;;4.13;;
74503;SDS011;62988;55.776;37.544;2023-04-24T08:03:51;16.15;;;4.05;;
74503;SDS011;62988;55.776;37.544;2023-04-24T08:06:16;9.53;;;4.13;;
74503;SDS011;62988;55.776;37.544;2023-04-24T08:08:42;15.23;;;4.82;;
74503;SDS011;62988;55.776;37.544;2023-04-24T08:11:07;11.07;;;4.25;;
74503;SDS011;62988;55.776;37.544;2023-04-24T08:13:33;14.75;;;4.30;;
74503;SDS011;62988;55.776;37.544;2023-04-24T08:15:58;7.30;;;3.97;;
74503;SDS011;62988;55.776;37.544;2023-04-24T08:18:24;8.97;;;3.80;;
74503;SDS011;62988;55.776;37.544;2023-04-24T08:20:49;5.43;;;3.30;;
74503;SDS011;62988;55.776;37.544;2023-04-24T08:23:14;10.55;;;3.72;;
74503;SDS011;62988;55.776;37.544;2023-04-24T08:25:40;8.02;;;3.75;;
74503;SDS011;62988;55.776;37.544;2023-04-24T08:28:05;7.60;;;4.10;;
74503;SDS011;62988;55.776;37.544;2023-04-24T08:30:31;10.10;;;4.80;;
74503;SDS011;62988;55.776;37.544;2023-04-24T08:32:57;11.13;;;4.32;;
74503;SDS011;62988;55.776;37.544;2023-04-24T08:35:22;21.02;;;4.55;;
74503;SDS011;62988;55.776;37.544;2023-04-24T08:37:48;19.58;;;4.78;;
74503;SDS011;62988;55.776;37.544;2023-04-24T08:40:14;13.25;;;4.05;;
74503;SDS011;62988;55.776;37.544;2023-04-24T08:42:41;11.20;;;4.10;;
74503;SDS011;62988;55.776;37.544;2023-04-24T08:45:07;10.73;;;4.65;;
74503;SDS011;62988;55.776;37.544;2023-04-24T08:47:32;8.75;;;4.13;;
74503;SDS011;62988;55.776;37.544;2023-04-24T08:49:58;10.80;;;3.67;;
74503;SDS011;62988;55.776;37.544;2023-04-24T08:52:27;8.70;;;3.42;;
74503;SDS011;62988;55.776;37.544;2023-04-24T08:54:53;8.95;;;5.05;;
74503;SDS011;62988;55.776;37.544;2023-04-24T08:57:19;12.30;;;4.22;;
74503;SDS011;62988;55.776;37.544;2023-04-24T08:59:45;8.80;;;4.27;;
74503;SDS011;62988;55.776;37.544;2023-04-24T09:02:10;8.07;;;3.90;;
74503;SDS011;62988;55.776;37.544;2023-04-24T09:04:37;6.63;;;4.10;;
74503;SDS011;62988;55.776;37.544;2023-04-24T09:07:02;11.18;;;4.43;;
74503;SDS011;62988;55.776;37.544;2023-04-24T09:09:29;7.75;;;4.78;;
74503;SDS011;62988;55.776;37.544;2023-04-24T09:11:55;8.20;;;4.10;;
74503;SDS011;62988;55.776;37.544;2023-04-24T09:14:22;7.05;;;3.60;;
74503;SDS011;62988;55.776;37.544;2023-04-24T09:16:48;7.78;;;4.32;;
74503;SDS011;62988;55.776;37.544;2023-04-24T09:19:14;8.45;;;3.85;;
74503;SDS011;62988;55.776;37.544;2023-04-24T09:21:39;8.20;;;4.53;;
74503;SDS011;62988;55.776;37.544;2023-04-24T09:24:08;6.50;;;3.85;;
74503;SDS011;62988;55.776;37.544;2023-04-24T09:26:39;7.93;;;4.00;;
74503;SDS011;62988;55.776;37.544;2023-04-24T09:29:04;8.45;;;3.38;;
74503;SDS011;62988;55.776;37.544;2023-04-24T09:31:30;9.73;;;4.00;;
74503;SDS011;62988;55.776;37.544;2023-04-24T09:33:56;10.35;;;4.05;;
74503;SDS011;62988;55.776;37.544;2023-04-24T09:36:32;14.50;;;4.03;;
74503;SDS011;62988;55.776;37.544;2023-04-24T09:39:02;8.38;;;4.82;;
74503;SDS011;62988;55.776;37.544;2023-04-24T09:41:28;7.72;;;4.20;;
74503;SDS011;62988;55.776;37.544;2023-04-24T09:43:56;6.90;;;3.80;;
74503;SDS011;62988;55.776;37.544;2023-04-24T09:46:29;9.57;;;4.07;;
74503;SDS011;62988;55.776;37.544;2023-04-24T09:48:54;8.95;;;4.05;;
74503;SDS011;62988;55.776;37.544;2023-04-24T09:51:20;10.20;;;4.80;;
74503;SDS011;62988;55.776;37.544;2023-04-24T09:53:57;7.47;;;4.13;;
74503;SDS011;62988;55.776;37.544;2023-04-24T09:56:23;8.47;;;3.50;;
74503;SDS011;62988;55.776;37.544;2023-04-24T09:58:50;33.03;;;4.80;;
74503;SDS011;62988;55.776;37.544;2023-04-24T10:01:16;8.60;;;3.53;;
74503;SDS011;62988;55.776;37.544;2023-04-24T10:03:42;7.30;;;3.95;;
74503;SDS011;62988;55.776;37.544;2023-04-24T10:06:11;9.73;;;4.18;;
74503;SDS011;62988;55.776;37.544;2023-04-24T10:08:36;12.18;;;4.20;;
74503;SDS011;62988;55.776;37.544;2023-04-24T10:11:02;8.15;;;3.53;;
74503;SDS011;62988;55.776;37.544;2023-04-24T10:13:28;8.40;;;3.22;;
74503;SDS011;62988;55.776;37.544;2023-04-24T10:15:53;6.00;;;3.30;;
74503;SDS011;62988;55.776;37.544;2023-04-24T10:18:20;6.53;;;3.67;;
74503;SDS011;62988;55.776;37.544;2023-04-24T10:20:46;8.77;;;4.10;;
74503;SDS011;62988;55.776;37.544;2023-04-24T10:23:11;10.15;;;3.83;;
74503;SDS011;62988;55.776;37.544;2023-04-24T10:25:37;10.93;;;3.90;;
74503;SDS011;62988;55.776;37.544;2023-04-24T10:28:02;6.60;;;3.38;;
74503;SDS011;62988;55.776;37.544;2023-04-24T10:30:37;8.77;;;3.63;;
74503;SDS011;62988;55.776;37.544;2023-04-24T10:33:03;9.82;;;4.05;;
74503;SDS011;62988;55.776;37.544;2023-04-24T10:35:30;8.50;;;3.65;;
74503;SDS011;62988;55.776;37.544;2023-04-24T10:37:56;12.88;;;4.80;;
74503;SDS011;62988;55.776;37.544;2023-04-24T10:40:26;16.70;;;3.95;;
74503;SDS011;62988;55.776;37.544;2023-04-24T10:42:52;12.35;;;4.13;;
74503;SDS011;62988;55.776;37.544;2023-04-24T10:45:21;8.13;;;4.15;;
74503;SDS011;62988;55.776;37.544;2023-04-24T10:47:51;12.23;;;4.00;;
74503;SDS011;62988;55.776;37.544;2023-04-24T10:50:16;8.23;;;3.92;;
74503;SDS011;62988;55.776;37.544;2023-04-24T10:52:48;7.28;;;3.58;;
74503;SDS011;62988;55.776;37.544;2023-04-24T10:55:16;6.10;;;2.90;;
74503;SDS011;62988;55.776;37.544;2023-04-24T10:58:02;5.20;;;3.50;;
74503;SDS011;62988;55.776;37.544;2023-04-24T11:00:28;8.75;;;3.47;;
74503;SDS011;62988;55.776;37.544;2023-04-24T11:02:54;5.72;;;3.42;;
74503;SDS011;62988;55.776;37.544;2023-04-24T11:05:21;7.47;;;3.40;;
74503;SDS011;62988;55.776;37.544;2023-04-24T11:10:30;12.63;;;3.60;;
74503;SDS011;62988;55.776;37.544;2023-04-24T11:12:56;12.82;;;4.13;;
74503;SDS011;62988;55.776;37.544;2023-04-24T11:15:21;8.50;;;3.63;;
74503;SDS011;62988;55.776;37.544;2023-04-24T11:17:46;8.25;;;3.80;;
74503;SDS011;62988;55.776;37.544;2023-04-24T11:20:16;8.43;;;3.40;;
74503;SDS011;62988;55.776;37.544;2023-04-24T11:22:42;5.90;;;3.30;;
74503;SDS011;62988;55.776;37.544;2023-04-24T11:25:08;13.05;;;3.63;;
74503;SDS011;62988;55.776;37.544;2023-04-24T11:27:43;17.67;;;3.67;;
74503;SDS011;62988;55.776;37.544;2023-04-24T11:30:09;31.23;;;4.88;;
74503;SDS011;62988;55.776;37.544;2023-04-24T11:32:39;7.25;;;3.70;;
74503;SDS011;62988;55.776;37.544;2023-04-24T11:35:06;8.45;;;4.00;;
74503;SDS011;62988;55.776;37.544;2023-04-24T11:37:38;15.68;;;3.65;;
74503;SDS011;62988;55.776;37.544;2023-04-24T11:40:04;17.48;;;4.38;;
74503;SDS011;62988;55.776;37.544;2023-04-24T11:42:37;10.35;;;4.15;;
74503;SDS011;62988;55.776;37.544;2023-04-24T11:45:13;8.75;;;3.78;;
74503;SDS011;62988;55.776;37.544;2023-04-24T11:47:38;9.00;;;3.80;;
74503;SDS011;62988;55.776;37.544;2023-04-24T11:50:05;7.13;;;3.72;;
74503;SDS011;62988;55.776;37.544;2023-04-24T11:52:31;7.32;;;3.70;;
74503;SDS011;62988;55.776;37.544;2023-04-24T11:54:56;15.98;;;3.95;;
74503;SDS011;62988;55.776;37.544;2023-04-24T11:57:23;10.85;;;3.72;;
74503;SDS011;62988;55.776;37.544;2023-04-24T11:59:51;11.00;;;3.85;;
74503;SDS011;62988;55.776;37.544;2023-04-24T12:02:20;9.93;;;3.78;;
74503;SDS011;62988;55.776;37.544;2023-04-24T12:04:48;8.07;;;3.47;;
74503;SDS011;62988;55.776;37.544;2023-04-24T12:07:14;11.20;;;3.60;;
74503;SDS011;62988;55.776;37.544;2023-04-24T12:09:46;7.95;;;3.40;;
74503;SDS011;62988;55.776;37.544;2023-04-24T12:12:12;10.13;;;3.42;;
74503;SDS011;62988;55.776;37.544;2023-04-24T12:17:09;8.48;;;3.55;;
74503;SDS011;62988;55.776;37.544;2023-04-24T12:19:35;8.30;;;3.35;;
74503;SDS011;62988;55.776;37.544;2023-04-24T12:22:05;8.00;;;3.63;;
74503;SDS011;62988;55.776;37.544;2023-04-24T12:24:31;10.02;;;4.30;;
74503;SDS011;62988;55.776;37.544;2023-04-24T12:26:56;11.18;;;3.70;;
74503;SDS011;62988;55.776;37.544;2023-04-24T12:29:23;7.55;;;3.30;;
74503;SDS011;62988;55.776;37.544;2023-04-24T12:31:49;11.20;;;3.75;;
74503;SDS011;62988;55.776;37.544;2023-04-24T12:34:21;13.73;;;3.60;;
74503;SDS011;62988;55.776;37.544;2023-04-24T12:36:47;11.40;;;3.55;;
74503;SDS011;62988;55.776;37.544;2023-04-24T12:39:16;8.85;;;3.63;;
74503;SDS011;62988;55.776;37.544;2023-04-24T12:42:15;12.38;;;3.40;;
74503;SDS011;62988;55.776;37.544;2023-04-24T12:44:34;11.98;;;3.53;;
74503;SDS011;62988;55.776;37.544;2023-04-24T12:47:02;12.75;;;4.03;;
74503;SDS011;62988;55.776;37.544;2023-04-24T12:49:27;10.02;;;3.45;;
74503;SDS011;62988;55.776;37.544;2023-04-24T12:51:53;10.20;;;3.22;;
74503;SDS011;62988;55.776;37.544;2023-04-24T12:54:18;21.25;;;3.85;;
74503;SDS011;62988;55.776;37.544;2023-04-24T12:56:44;10.32;;;3.97;;
74503;SDS011;62988;55.776;37.544;2023-04-24T12:59:09;9.10;;;3.03;;
74503;SDS011;62988;55.776;37.544;2023-04-24T13:01:34;7.05;;;3.42;;
74503;SDS011;62988;55.776;37.544;2023-04-24T13:04:00;4.93;;;3.58;;
74503;SDS011;62988;55.776;37.544;2023-04-24T13:06:25;9.25;;;3.05;;
74503;SDS011;62988;55.776;37.544;2023-04-24T13:08:51;10.68;;;3.50;;
74503;SDS011;62988;55.776;37.544;2023-04-24T13:11:16;10.95;;;3.58;;
74503;SDS011;62988;55.776;37.544;2023-04-24T13:13:42;7.45;;;3.40;;
74503;SDS011;62988;55.776;37.544;2023-04-24T13:16:08;9.68;;;3.47;;
74503;SDS011;62988;55.776;37.544;2023-04-24T13:18:33;24.45;;;4.18;;
74503;SDS011;62988;55.776;37.544;2023-04-24T13:20:58;8.95;;;3.35;;
74503;SDS011;62988;55.776;37.544;2023-04-24T13:23:24;9.10;;;3.47;;
74503;SDS011;62988;55.776;37.544;2023-04-24T13:25:49;5.15;;;3.03;;
74503;SDS011;62988;55.776;37.544;2023-04-24T13:28:15;11.30;;;3.20;;
74503;SDS011;62988;55.776;37.544;2023-04-24T13:30:40;8.83;;;3.43;;
74503;SDS011;62988;55.776;37.544;2023-04-24T13:33:05;5.25;;;3.03;;
74503;SDS011;62988;55.776;37.544;2023-04-24T13:35:31;7.55;;;3.00;;
74503;SDS011;62988;55.776;37.544;2023-04-24T13:37:57;9.30;;;3.28;;
74503;SDS011;62988;55.776;37.544;2023-04-24T13:40:22;6.63;;;3.25;;
74503;SDS011;62988;55.776;37.544;2023-04-24T13:42:48;10.40;;;3.47;;
74503;SDS011;62988;55.776;37.544;2023-04-24T13:45:13;10.05;;;3.38;;
74503;SDS011;62988;55.776;37.544;2023-04-24T13:47:39;7.53;;;4.03;;
74503;SDS011;62988;55.776;37.544;2023-04-24T13:50:06;18.98;;;4.78;;
74503;SDS011;62988;55.776;37.544;2023-04-24T13:52:33;10.32;;;3.13;;
74503;SDS011;62988;55.776;37.544;2023-04-24T13:54:59;6.00;;;2.83;;
74503;SDS011;62988;55.776;37.544;2023-04-24T13:57:24;10.98;;;3.03;;
74503;SDS011;62988;55.776;37.544;2023-04-24T13:59:50;7.18;;;3.13;;
74503;SDS011;62988;55.776;37.544;2023-04-24T14:02:15;8.50;;;3.50;;
74503;SDS011;62988;55.776;37.544;2023-04-24T14:04:40;10.48;;;3.50;;
74503;SDS011;62988;55.776;37.544;2023-04-24T14:07:06;8.27;;;3.47;;
74503;SDS011;62988;55.776;37.544;2023-04-24T14:09:32;10.07;;;3.28;;
74503;SDS011;62988;55.776;37.544;2023-04-24T14:11:57;9.30;;;3.60;;
74503;SDS011;62988;55.776;37.544;2023-04-24T14:14:23;7.55;;;3.00;;
74503;SDS011;62988;55.776;37.544;2023-04-24T14:16:48;11.83;;;3.47;;
74503;SDS011;62988;55.776;37.544;2023-04-24T14:19:13;19.40;;;3.85;;
74503;SDS011;62988;55.776;37.544;2023-04-24T14:21:39;5.77;;;3.03;;
74503;SDS011;62988;55.776;37.544;2023-04-24T14:24:05;8.38;;;3.15;;
74503;SDS011;62988;55.776;37.544;2023-04-24T14:26:30;10.02;;;3.63;;
74503;SDS011;62988;55.776;37.544;2023-04-24T14:28:56;11.38;;;3.65;;
74503;SDS011;62988;55.776;37.544;2023-04-24T14:31:23;8.65;;;3.30;;
74503;SDS011;62988;55.776;37.544;2023-04-24T14:33:49;9.77;;;3.45;;
74503;SDS011;62988;55.776;37.544;2023-04-24T14:36:14;7.95;;;3.20;;
74503;SDS011;62988;55.776;37.544;2023-04-24T14:38:40;16.88;;;3.72;;
74503;SDS011;62988;55.776;37.544;2023-04-24T14:41:05;9.87;;;3.30;;
74503;SDS011;62988;55.776;37.544;2023-04-24T14:43:34;9.73;;;3.13;;
74503;SDS011;62988;55.776;37.544;2023-04-24T14:46:00;12.07;;;3.15;;
74503;SDS011;62988;55.776;37.544;2023-04-24T14:48:25;11.73;;;3.28;;
74503;SDS011;62988;55.776;37.544;2023-04-24T14:50:51;8.00;;;3.77;;
74503;SDS011;62988;55.776;37.544;2023-04-24T14:53:16;13.55;;;4.35;;
74503;SDS011;62988;55.776;37.544;2023-04-24T14:55:41;16.58;;;4.30;;
74503;SDS011;62988;55.776;37.544;2023-04-24T14:58:07;5.97;;;2.60;;
74503;SDS011;62988;55.776;37.544;2023-04-24T15:00:32;8.65;;;2.88;;